createdAt,value
2022-08-17T00:00:49.312Z,93.28
2022-08-17T00:01:52.632Z,93.08
2022-08-17T00:02:36.875Z,93.18
2022-08-17T00:03:34.559Z,93.77
2022-08-17T00:04:34.565Z,93.88
2022-08-17T00:05:34.567Z,93.58
2022-08-17T00:06:34.568Z,93.77
2022-08-17T00:07:34.573Z,93.68
2022-08-17T00:08:34.570Z,93.18
2022-08-17T00:09:34.570Z,93.68
2022-08-17T00:10:34.576Z,93.88
2022-08-17T00:11:34.584Z,93.58
2022-08-17T00:12:41.694Z,92.78
2022-08-17T00:13:34.585Z,93.38
2022-08-17T00:14:34.588Z,92.98
2022-08-17T00:15:34.582Z,93.68
2022-08-17T00:16:55.360Z,93.08
2022-08-17T00:17:34.593Z,93.88
2022-08-17T00:19:01.685Z,93.18
2022-08-17T00:19:34.600Z,93.08
2022-08-17T00:20:35.037Z,93.58
2022-08-17T00:21:56.061Z,94.02
2022-08-17T00:22:36.741Z,93.68
2022-08-17T00:23:34.607Z,93.77
2022-08-17T00:24:34.614Z,92.93
2022-08-17T00:25:34.609Z,93.62
2022-08-17T00:26:44.700Z,94.02
2022-08-17T00:27:34.618Z,93.23
2022-08-17T00:28:34.619Z,93.02
2022-08-17T00:29:34.621Z,92.72
2022-08-17T00:30:51.468Z,92.93
2022-08-17T00:31:34.624Z,94.02
2022-08-17T00:33:14.246Z,93.32
2022-08-17T00:33:34.629Z,92.72
2022-08-17T00:34:34.630Z,93.12
2022-08-17T00:35:34.635Z,92.72
2022-08-17T00:36:34.635Z,93.23
2022-08-17T00:37:34.639Z,92.72
2022-08-17T00:38:34.640Z,92.93
2022-08-17T00:39:34.700Z,93.92
2022-08-17T00:40:39.872Z,92.43
2022-08-17T00:41:34.647Z,92.72
2022-08-17T00:42:34.649Z,93.92
2022-08-17T00:43:34.651Z,93.32
2022-08-17T00:44:34.652Z,92.93
2022-08-17T00:45:34.656Z,93.52
2022-08-17T00:46:34.659Z,93.82
2022-08-17T00:47:34.668Z,93.62
2022-08-17T00:48:34.661Z,92.52
2022-08-17T00:49:34.661Z,93.52
2022-08-17T00:50:34.664Z,93.72
2022-08-17T00:51:34.666Z,93.92
2022-08-17T00:52:34.673Z,93.82
2022-08-17T00:53:34.669Z,94.02
2022-08-17T00:54:41.661Z,93.66
2022-08-17T00:55:34.676Z,93.27
2022-08-17T00:56:34.679Z,93.37
2022-08-17T00:57:34.684Z,93.52
2022-08-17T00:58:36.529Z,94.37
2022-08-17T00:59:34.683Z,93.77
2022-08-17T01:00:34.694Z,93.66
2022-08-17T01:01:34.710Z,93.87
2022-08-17T01:02:41.465Z,93.57
2022-08-17T01:03:34.693Z,93.47
2022-08-17T01:04:34.698Z,93.87
2022-08-17T01:05:34.692Z,93.96
2022-08-17T01:06:34.703Z,94.67
2022-08-17T01:07:34.697Z,94.67
2022-08-17T01:08:34.704Z,95.06
2022-08-17T01:09:34.711Z,94.67
2022-08-17T01:10:57.358Z,94.96
2022-08-17T01:11:34.706Z,94.07
2022-08-17T01:12:34.711Z,93.47
2022-08-17T01:13:40.401Z,93.57
2022-08-17T01:14:34.721Z,94.17
2022-08-17T01:15:34.716Z,94.76
2022-08-17T01:16:34.720Z,94.76
2022-08-17T01:17:34.729Z,94.86
2022-08-17T01:18:34.725Z,95.16
2022-08-17T01:19:34.728Z,94.86
2022-08-17T01:20:47.926Z,94.07
2022-08-17T01:21:34.730Z,94.96
2022-08-17T01:22:34.731Z,95.51
2022-08-17T01:23:34.736Z,95.51
2022-08-17T01:24:34.736Z,95.41
2022-08-17T01:25:34.737Z,94.61
2022-08-17T01:26:34.745Z,95.81
2022-08-17T01:27:34.741Z,95.31
2022-08-17T01:28:54.066Z,95.41
2022-08-17T01:29:34.749Z,95.81
2022-08-17T01:30:56.979Z,94.41
2022-08-17T01:31:34.747Z,95.15
2022-08-17T01:32:34.752Z,95.45
2022-08-17T01:33:34.748Z,96.15
2022-08-17T01:34:42.408Z,96.40
2022-08-17T01:35:34.755Z,96.90
2022-08-17T01:36:34.757Z,96.50
2022-08-17T01:37:34.758Z,96.60
2022-08-17T01:38:34.768Z,96.80
2022-08-17T01:39:34.830Z,96.50
2022-08-17T01:40:34.770Z,96.40
2022-08-17T01:41:34.774Z,96.40
2022-08-17T01:42:34.772Z,95.90
2022-08-17T01:43:34.769Z,95.36
2022-08-17T01:44:34.777Z,95.80
2022-08-17T01:45:34.778Z,95.95
2022-08-17T01:46:34.789Z,95.95
2022-08-17T01:47:36.098Z,95.36
2022-08-17T01:48:34.783Z,95.65
2022-08-17T01:49:34.787Z,95.55
2022-08-17T01:50:34.792Z,95.55
2022-08-17T01:51:34.798Z,96.25
2022-08-17T01:52:34.794Z,95.55
2022-08-17T01:53:34.789Z,96.55
2022-08-17T01:54:34.795Z,95.95
2022-08-17T01:55:34.796Z,95.55
2022-08-17T01:56:34.797Z,94.85
2022-08-17T01:57:34.799Z,95.45
2022-08-17T01:58:34.806Z,95.65
2022-08-17T01:59:34.804Z,95.06
2022-08-17T02:00:59.598Z,95.65
2022-08-17T02:01:34.943Z,94.65
2022-08-17T02:02:34.810Z,95.95
2022-08-17T02:03:34.811Z,95.25
2022-08-17T02:04:34.816Z,94.65
2022-08-17T02:05:34.818Z,96.05
2022-08-17T02:06:52.735Z,95.25
2022-08-17T02:07:59.999Z,95.25
2022-08-17T02:08:37.036Z,95.45
2022-08-17T02:09:34.819Z,94.85
2022-08-17T02:10:34.825Z,95.25
2022-08-17T02:11:34.823Z,95.36
2022-08-17T02:12:37.625Z,95.86
2022-08-17T02:13:34.829Z,95.45
2022-08-17T02:14:34.836Z,95.95
2022-08-17T02:15:34.835Z,96.45
2022-08-17T02:16:36.947Z,96.45
2022-08-17T02:17:34.837Z,96.55
2022-08-17T02:18:34.841Z,96.95
2022-08-17T02:19:34.841Z,96.85
2022-08-17T02:20:41.985Z,96.20
2022-08-17T02:21:34.840Z,96.10
2022-08-17T02:22:34.851Z,96.65
2022-08-17T02:23:34.849Z,96.70
2022-08-17T02:24:59.535Z,97.20
2022-08-17T02:25:34.849Z,97.40
2022-08-17T02:26:34.852Z,97.60
2022-08-17T02:27:34.853Z,96.55
2022-08-17T02:28:34.858Z,97.20
2022-08-17T02:29:34.862Z,96.70
2022-08-17T02:30:59.829Z,96.40
2022-08-17T02:31:34.859Z,96.10
2022-08-17T02:32:34.864Z,95.90
2022-08-17T02:33:42.450Z,96.60
2022-08-17T02:34:34.869Z,96.80
2022-08-17T02:35:34.871Z,96.40
2022-08-17T02:36:34.870Z,96.90
2022-08-17T02:37:34.870Z,96.50
2022-08-17T02:38:34.876Z,97.00
2022-08-17T02:39:34.927Z,96.40
2022-08-17T02:40:36.381Z,96.50
2022-08-17T02:41:34.879Z,96.60
2022-08-17T02:42:34.879Z,96.80
2022-08-17T02:43:34.892Z,96.70
2022-08-17T02:44:39.268Z,96.40
2022-08-17T02:45:34.885Z,96.84
2022-08-17T02:46:34.885Z,96.20
2022-08-17T02:47:34.890Z,96.80
2022-08-17T02:48:34.892Z,96.80
2022-08-17T02:49:34.894Z,96.50
2022-08-17T02:50:34.900Z,97.30
2022-08-17T02:51:34.896Z,97.20
2022-08-17T02:52:42.926Z,97.70
2022-08-17T02:53:35.810Z,97.50
2022-08-17T02:54:41.067Z,97.64
2022-08-17T02:55:34.900Z,97.24
2022-08-17T02:56:34.908Z,97.24
2022-08-17T02:57:34.906Z,96.94
2022-08-17T02:58:36.092Z,96.84
2022-08-17T02:59:34.913Z,97.34
2022-08-17T03:00:34.910Z,96.94
2022-08-17T03:01:34.989Z,97.24
2022-08-17T03:02:34.913Z,97.24
2022-08-17T03:03:34.919Z,96.94
2022-08-17T03:04:35.385Z,97.24
2022-08-17T03:05:34.922Z,96.94
2022-08-17T03:06:34.920Z,97.24
2022-08-17T03:07:34.920Z,97.34
2022-08-17T03:08:34.928Z,97.34
2022-08-17T03:09:34.930Z,97.74
2022-08-17T03:10:34.926Z,97.64
2022-08-17T03:11:34.933Z,97.64
2022-08-17T03:12:34.969Z,97.34
2022-08-17T03:13:34.931Z,97.14
2022-08-17T03:14:38.167Z,98.24
2022-08-17T03:15:34.937Z,97.64
2022-08-17T03:16:34.937Z,97.64
2022-08-17T03:17:34.942Z,97.39
2022-08-17T03:18:34.939Z,97.24
2022-08-17T03:19:34.943Z,97.74
2022-08-17T03:20:34.949Z,98.04
2022-08-17T03:21:34.947Z,97.49
2022-08-17T03:22:36.771Z,97.99
2022-08-17T03:23:34.961Z,97.49
2022-08-17T03:24:34.954Z,97.89
2022-08-17T03:25:34.953Z,97.99
2022-08-17T03:26:34.957Z,97.89
2022-08-17T03:27:34.951Z,98.19
2022-08-17T03:28:34.956Z,97.74
2022-08-17T03:29:34.963Z,97.74
2022-08-17T03:30:34.959Z,98.04
2022-08-17T03:31:36.886Z,98.04
2022-08-17T03:32:34.962Z,98.24
2022-08-17T03:33:34.980Z,98.14
2022-08-17T03:34:34.966Z,97.85
2022-08-17T03:35:34.975Z,98.14
2022-08-17T03:36:35.886Z,98.04
2022-08-17T03:37:35.076Z,98.14
2022-08-17T03:38:38.892Z,98.24
2022-08-17T03:39:35.009Z,98.14
2022-08-17T03:40:58.108Z,97.85
2022-08-17T03:41:34.981Z,97.74
2022-08-17T03:42:34.979Z,97.89
2022-08-17T03:43:34.984Z,97.85
2022-08-17T03:44:34.981Z,97.79
2022-08-17T03:45:34.987Z,97.89
2022-08-17T03:46:35.678Z,97.99
2022-08-17T03:47:34.990Z,97.89
2022-08-17T03:48:34.992Z,98.33
2022-08-17T03:49:34.995Z,98.44
2022-08-17T03:50:34.995Z,98.14
2022-08-17T03:51:34.992Z,98.44
2022-08-17T03:52:34.993Z,99.14
2022-08-17T03:53:34.995Z,98.94
2022-08-17T03:54:35.004Z,98.94
2022-08-17T03:55:36.240Z,98.74
2022-08-17T03:56:35.008Z,98.74
2022-08-17T03:57:35.001Z,98.33
2022-08-17T03:58:35.006Z,98.54
2022-08-17T03:59:35.002Z,98.94
2022-08-17T04:00:35.028Z,98.24
2022-08-17T04:01:35.217Z,97.89
2022-08-17T04:02:35.010Z,97.59
2022-08-17T04:03:35.014Z,98.29
2022-08-17T04:04:35.013Z,98.39
2022-08-17T04:05:35.015Z,98.59
2022-08-17T04:06:35.015Z,99.09
2022-08-17T04:07:35.021Z,98.19
2022-08-17T04:08:35.020Z,97.99
2022-08-17T04:09:35.029Z,98.69
2022-08-17T04:10:38.369Z,98.19
2022-08-17T04:11:35.027Z,99.09
2022-08-17T04:12:35.024Z,98.19
2022-08-17T04:13:35.027Z,98.09
2022-08-17T04:14:35.031Z,99.09
2022-08-17T04:15:35.037Z,98.99
2022-08-17T04:16:35.035Z,98.59
2022-08-17T04:17:35.036Z,98.83
2022-08-17T04:18:35.032Z,98.79
2022-08-17T04:19:35.036Z,98.89
2022-08-17T04:20:35.043Z,99.19
2022-08-17T04:21:35.039Z,99.14
2022-08-17T04:22:35.040Z,98.49
2022-08-17T04:23:35.042Z,98.09
2022-08-17T04:24:35.045Z,98.89
2022-08-17T04:25:35.050Z,98.69
2022-08-17T04:26:54.250Z,97.89
2022-08-17T04:27:35.137Z,99.19
2022-08-17T04:28:35.047Z,97.74
2022-08-17T04:29:54.851Z,98.29
2022-08-17T04:30:35.053Z,97.69
2022-08-17T04:31:35.057Z,97.69
2022-08-17T04:33:04.769Z,97.49
2022-08-17T04:33:35.059Z,97.99
2022-08-17T04:34:35.061Z,97.24
2022-08-17T04:35:35.060Z,97.89
2022-08-17T04:36:35.058Z,98.14
2022-08-17T04:37:35.069Z,97.85
2022-08-17T04:38:35.063Z,97.24
2022-08-17T04:39:35.152Z,97.05
2022-08-17T04:40:35.073Z,96.94
2022-08-17T04:41:35.069Z,97.55
2022-08-17T04:42:35.073Z,97.94
2022-08-17T04:43:35.070Z,97.85
2022-08-17T04:44:37.375Z,98.14
2022-08-17T04:45:35.078Z,98.04
2022-08-17T04:46:35.078Z,97.94
2022-08-17T04:47:35.082Z,97.34
2022-08-17T04:48:37.073Z,97.14
2022-08-17T04:49:35.083Z,98.14
2022-08-17T04:50:35.082Z,97.80
2022-08-17T04:51:35.082Z,98.30
2022-08-17T04:52:43.223Z,97.74
2022-08-17T04:53:35.091Z,98.00
2022-08-17T04:54:35.086Z,98.10
2022-08-17T04:55:35.091Z,99.29
2022-08-17T04:56:35.101Z,98.80
2022-08-17T04:57:39.515Z,98.80
2022-08-17T04:58:35.101Z,98.90
2022-08-17T04:59:35.100Z,98.99
2022-08-17T05:00:35.105Z,99.10
2022-08-17T05:01:35.133Z,98.39
2022-08-17T05:02:35.105Z,98.90
2022-08-17T05:03:35.105Z,98.00
2022-08-17T05:04:35.568Z,97.80
2022-08-17T05:05:35.111Z,98.05
2022-08-17T05:06:35.110Z,97.25
2022-08-17T05:07:35.117Z,97.55
2022-08-17T05:08:35.155Z,98.05
2022-08-17T05:09:35.111Z,97.75
2022-08-17T05:10:35.113Z,97.25
2022-08-17T05:11:35.117Z,97.55
2022-08-17T05:12:35.118Z,97.60
2022-08-17T05:13:35.121Z,97.50
2022-08-17T05:14:35.124Z,96.50
2022-08-17T05:15:36.027Z,97.11
2022-08-17T05:16:35.126Z,96.50
2022-08-17T05:17:35.128Z,96.91
2022-08-17T05:18:35.126Z,97.60
2022-08-17T05:19:35.135Z,96.56
2022-08-17T05:20:35.130Z,96.20
2022-08-17T05:21:35.133Z,96.56
2022-08-17T05:22:35.133Z,96.36
2022-08-17T05:23:42.833Z,96.36
2022-08-17T05:24:38.419Z,96.71
2022-08-17T05:25:36.207Z,97.16
2022-08-17T05:26:36.482Z,97.36
2022-08-17T05:27:35.991Z,97.31
2022-08-17T05:28:35.143Z,96.51
2022-08-17T05:29:35.986Z,96.61
2022-08-17T05:30:35.151Z,97.21
2022-08-17T05:31:35.152Z,96.31
2022-08-17T05:32:37.975Z,95.77
2022-08-17T05:33:35.157Z,96.07
2022-08-17T05:34:35.152Z,95.77
2022-08-17T05:35:35.160Z,95.07
2022-08-17T05:36:42.199Z,95.27
2022-08-17T05:37:35.161Z,95.23
2022-08-17T05:38:35.162Z,94.73
2022-08-17T05:39:35.194Z,94.78
2022-08-17T05:40:35.163Z,94.03
2022-08-17T05:41:35.165Z,94.33
2022-08-17T05:42:35.169Z,94.13
2022-08-17T05:43:35.171Z,94.03
2022-08-17T05:44:35.176Z,93.99
2022-08-17T05:45:54.344Z,93.99
2022-08-17T05:46:35.176Z,93.69
2022-08-17T05:47:35.180Z,92.89
2022-08-17T05:48:35.458Z,93.39
2022-08-17T05:49:35.181Z,91.89
2022-08-17T05:50:35.184Z,92.45
2022-08-17T05:51:35.188Z,92.79
2022-08-17T05:52:35.195Z,91.95
2022-08-17T05:53:35.259Z,91.95
2022-08-17T05:54:35.195Z,92.74
2022-08-17T05:55:35.195Z,92.25
2022-08-17T05:56:35.195Z,91.55
2022-08-17T05:57:35.198Z,93.54
2022-08-17T05:58:35.200Z,92.21
2022-08-17T05:59:35.198Z,91.81
2022-08-17T06:00:35.204Z,91.41
2022-08-17T06:01:35.285Z,91.71
2022-08-17T06:02:35.209Z,91.01
2022-08-17T06:03:35.206Z,91.17
2022-08-17T06:04:35.213Z,91.06
2022-08-17T06:05:35.213Z,90.47
2022-08-17T06:06:35.212Z,91.36
2022-08-17T06:07:35.217Z,91.17
2022-08-17T06:08:35.219Z,90.72
2022-08-17T06:09:35.219Z,90.13
2022-08-17T06:10:35.229Z,90.72
2022-08-17T06:11:35.261Z,90.83
2022-08-17T06:12:35.225Z,90.48
2022-08-17T06:13:35.230Z,90.98
2022-08-17T06:14:35.233Z,91.08
2022-08-17T06:15:35.234Z,91.28
2022-08-17T06:16:35.234Z,90.38
2022-08-17T06:17:35.243Z,90.44
2022-08-17T06:18:35.238Z,89.98
2022-08-17T06:19:35.245Z,90.34
2022-08-17T06:20:35.245Z,90.44
2022-08-17T06:21:35.245Z,89.84
2022-08-17T06:22:35.250Z,89.20
2022-08-17T06:23:35.255Z,88.71
2022-08-17T06:24:35.260Z,88.61
2022-08-17T06:25:35.258Z,87.97
2022-08-17T06:26:39.717Z,86.98
2022-08-17T06:27:35.262Z,86.98
2022-08-17T06:28:35.266Z,85.79
2022-08-17T06:29:35.268Z,85.65
2022-08-17T06:30:59.958Z,85.25
2022-08-17T06:31:35.270Z,85.16
2022-08-17T06:32:35.273Z,85.05
2022-08-17T06:33:35.284Z,84.81
2022-08-17T06:34:35.283Z,85.21
2022-08-17T06:35:35.279Z,86.00
2022-08-17T06:36:35.282Z,85.51
2022-08-17T06:37:35.290Z,84.42
2022-08-17T06:38:38.374Z,84.97
2022-08-17T06:39:35.304Z,84.58
2022-08-17T06:40:35.292Z,83.94
2022-08-17T06:41:37.912Z,83.84
2022-08-17T06:43:02.776Z,84.24
2022-08-17T06:43:35.303Z,83.45
2022-08-17T06:44:44.780Z,82.62
2022-08-17T06:45:35.305Z,83.47
2022-08-17T06:46:35.312Z,84.16
2022-08-17T06:47:35.311Z,83.76
2022-08-17T06:48:35.311Z,84.06
2022-08-17T06:49:35.322Z,83.86
2022-08-17T06:50:35.321Z,82.08
2022-08-17T06:51:35.324Z,80.95
2022-08-17T06:52:47.216Z,80.85
2022-08-17T06:53:35.335Z,81.74
2022-08-17T06:54:35.331Z,80.91
2022-08-17T06:55:38.070Z,81.51
2022-08-17T06:56:54.596Z,80.82
2022-08-17T06:57:35.338Z,81.11
2022-08-17T06:58:35.344Z,80.48
2022-08-17T06:59:54.676Z,80.98
2022-08-17T07:00:35.434Z,80.98
2022-08-17T07:01:35.422Z,80.15
2022-08-17T07:02:52.110Z,81.13
2022-08-17T07:03:35.362Z,80.70
2022-08-17T07:04:35.365Z,79.71
2022-08-17T07:05:35.384Z,79.58
2022-08-17T07:06:38.184Z,78.59
2022-08-17T07:07:35.377Z,78.39
2022-08-17T07:08:35.603Z,78.06
2022-08-17T07:09:35.390Z,77.92
2022-08-17T07:10:35.395Z,77.09
2022-08-17T07:11:35.389Z,76.51
2022-08-17T07:12:35.393Z,75.48
2022-08-17T07:13:35.394Z,75.65
2022-08-17T07:14:35.401Z,75.81
2022-08-17T07:15:35.405Z,74.65
2022-08-17T07:16:35.409Z,75.07
2022-08-17T07:17:47.015Z,72.61
2022-08-17T07:18:35.412Z,72.70
2022-08-17T07:19:35.418Z,69.17
2022-08-17T07:20:35.422Z,69.89
2022-08-17T07:21:35.430Z,68.52
2022-08-17T07:22:57.841Z,65.98
2022-08-17T07:23:35.437Z,65.14
2022-08-17T07:24:35.442Z,63.62
2022-08-17T07:25:35.443Z,62.19
2022-08-17T07:26:35.457Z,62.46
2022-08-17T07:27:35.458Z,60.07
2022-08-17T07:28:35.459Z,60.21
2022-08-17T07:29:35.460Z,59.89
2022-08-17T07:30:37.165Z,57.63
2022-08-17T07:31:35.474Z,57.99
2022-08-17T07:32:35.485Z,59.38
2022-08-17T07:33:35.482Z,57.54
2022-08-17T07:34:35.492Z,58.48
2022-08-17T07:35:40.653Z,57.97
2022-08-17T07:36:35.504Z,58.55
2022-08-17T07:37:35.510Z,57.39
2022-08-17T07:38:35.555Z,55.27
2022-08-17T07:39:35.547Z,56.04
2022-08-17T07:40:35.553Z,54.79
2022-08-17T07:41:57.430Z,55.46
2022-08-17T07:42:35.543Z,56.49
2022-08-17T07:43:35.550Z,57.27
2022-08-17T07:44:35.555Z,56.15
2022-08-17T07:45:35.567Z,56.73
2022-08-17T07:46:35.574Z,54.78
2022-08-17T07:47:35.580Z,54.78
2022-08-17T07:48:35.585Z,56.12
2022-08-17T07:49:35.603Z,55.90
2022-08-17T07:50:35.603Z,53.50
2022-08-17T07:51:35.612Z,54.94
2022-08-17T07:52:50.752Z,53.62
2022-08-17T07:53:35.628Z,54.78
2022-08-17T07:54:35.639Z,54.30
2022-08-17T07:55:35.644Z,53.50
2022-08-17T07:56:35.652Z,53.47
2022-08-17T07:57:35.677Z,53.09
2022-08-17T07:58:35.673Z,51.93
2022-08-17T07:59:35.680Z,52.15
2022-08-17T08:00:35.699Z,50.68
2022-08-17T08:01:39.625Z,51.53
2022-08-17T08:02:35.713Z,52.46
2022-08-17T08:03:35.727Z,50.61
2022-08-17T08:05:02.788Z,51.95
2022-08-17T08:05:49.500Z,50.87
2022-08-17T08:06:35.759Z,49.57
2022-08-17T08:07:35.762Z,48.40
2022-08-17T08:08:35.776Z,50.12
2022-08-17T08:09:35.790Z,47.71
2022-08-17T08:10:35.805Z,48.35
2022-08-17T08:11:35.816Z,45.86
2022-08-17T08:12:35.828Z,45.69
2022-08-17T08:13:35.834Z,51.54
2022-08-17T08:14:35.847Z,49.40
2022-08-17T08:15:35.858Z,51.32
2022-08-17T08:16:35.869Z,50.52
2022-08-17T08:17:35.884Z,49.19
2022-08-17T08:18:53.754Z,49.00
2022-08-17T08:19:35.909Z,48.02
2022-08-17T08:20:53.158Z,47.18
2022-08-17T08:21:35.934Z,47.97
2022-08-17T08:22:35.945Z,47.68
2022-08-17T08:23:35.957Z,49.50
2022-08-17T08:24:35.975Z,49.40
2022-08-17T08:25:35.983Z,45.86
2022-08-17T08:26:36.004Z,45.59
2022-08-17T08:27:36.019Z,50.10
2022-08-17T08:28:36.027Z,47.44
2022-08-17T08:29:36.044Z,47.46
2022-08-17T08:30:36.050Z,48.16
2022-08-17T08:31:41.653Z,51.06
2022-08-17T08:32:36.079Z,47.61
2022-08-17T08:33:36.095Z,49.05
2022-08-17T08:34:44.654Z,49.15
2022-08-17T08:35:36.123Z,50.49
2022-08-17T08:37:14.453Z,48.47
2022-08-17T08:37:42.021Z,47.22
2022-08-17T08:38:36.168Z,49.50
2022-08-17T08:39:36.225Z,48.54
2022-08-17T08:40:36.316Z,47.20
2022-08-17T08:41:36.206Z,50.75
2022-08-17T08:42:36.231Z,48.16
2022-08-17T08:43:36.278Z,46.14
2022-08-17T08:45:00.503Z,47.01
2022-08-17T08:45:36.264Z,49.88
2022-08-17T08:46:36.302Z,46.53
2022-08-17T08:47:36.288Z,47.39
2022-08-17T08:48:53.955Z,47.20
2022-08-17T08:50:02.225Z,47.10
2022-08-17T08:50:38.486Z,48.44
2022-08-17T08:51:36.355Z,49.12
2022-08-17T08:52:36.365Z,48.71
2022-08-17T08:53:36.383Z,47.46
2022-08-17T08:54:36.395Z,45.81
2022-08-17T08:55:36.407Z,47.34
2022-08-17T08:56:36.430Z,47.06
2022-08-17T08:57:36.440Z,49.55
2022-08-17T08:58:41.367Z,48.44
2022-08-17T08:59:36.472Z,45.29
2022-08-17T09:00:36.509Z,45.04
2022-08-17T09:01:36.548Z,46.03
2022-08-17T09:02:36.519Z,47.75
2022-08-17T09:03:51.864Z,47.08
2022-08-17T09:05:09.952Z,46.70
2022-08-17T09:05:36.573Z,49.45
2022-08-17T09:06:39.261Z,45.90
2022-08-17T09:07:36.605Z,46.29
2022-08-17T09:08:36.625Z,44.95
2022-08-17T09:09:36.640Z,45.45
2022-08-17T09:10:36.660Z,46.86
2022-08-17T09:11:36.713Z,44.56
2022-08-17T09:12:36.689Z,45.90
2022-08-17T09:13:36.709Z,45.89
2022-08-17T09:14:45.000Z,46.51
2022-08-17T09:15:36.747Z,45.07
2022-08-17T09:16:36.772Z,44.95
2022-08-17T09:17:36.786Z,45.12
2022-08-17T09:19:03.411Z,44.81
2022-08-17T09:19:36.828Z,43.46
2022-08-17T09:20:36.845Z,44.67
2022-08-17T09:21:36.864Z,44.44
2022-08-17T09:22:36.889Z,42.32
2022-08-17T09:23:36.905Z,41.72
2022-08-17T09:24:36.928Z,41.42
2022-08-17T09:25:36.949Z,41.89
2022-08-17T09:26:36.971Z,41.42
2022-08-17T09:27:36.991Z,40.58
2022-08-17T09:28:37.018Z,41.92
2022-08-17T09:29:37.049Z,40.66
2022-08-17T09:30:37.058Z,42.37
2022-08-17T09:31:48.937Z,41.49
2022-08-17T09:32:37.104Z,41.97
2022-08-17T09:33:37.128Z,40.71
2022-08-17T09:34:37.154Z,40.88
2022-08-17T09:35:37.600Z,42.02
2022-08-17T09:36:37.196Z,41.62
2022-08-17T09:37:37.218Z,44.34
2022-08-17T09:38:37.243Z,40.69
2022-08-17T09:39:37.321Z,41.31
2022-08-17T09:40:37.289Z,41.09
2022-08-17T09:41:37.311Z,41.46
2022-08-17T09:42:37.333Z,38.88
2022-08-17T09:43:37.361Z,42.36
2022-08-17T09:44:37.382Z,38.39
2022-08-17T09:45:37.420Z,38.10
2022-08-17T09:46:38.801Z,37.54
2022-08-17T09:47:37.453Z,38.76
2022-08-17T09:48:37.476Z,40.37
2022-08-17T09:49:37.506Z,38.09
2022-08-17T09:51:05.378Z,38.01
2022-08-17T09:51:37.557Z,37.82
2022-08-17T09:52:37.579Z,37.74
2022-08-17T09:53:37.608Z,38.05
2022-08-17T09:54:39.719Z,38.92
2022-08-17T09:55:37.662Z,38.62
2022-08-17T09:56:41.045Z,41.91
2022-08-17T09:57:37.705Z,39.69
2022-08-17T09:58:37.733Z,39.58
2022-08-17T09:59:38.730Z,38.99
2022-08-17T10:00:37.785Z,36.90
2022-08-17T10:01:37.836Z,39.61
2022-08-17T10:02:37.838Z,38.76
2022-08-17T10:03:37.859Z,37.05
2022-08-17T10:04:37.888Z,40.23
2022-08-17T10:05:37.911Z,37.23
2022-08-17T10:06:37.938Z,38.85
2022-08-17T10:07:37.962Z,39.99
2022-08-17T10:08:37.995Z,38.29
2022-08-17T10:09:38.019Z,37.10
2022-08-17T10:10:38.045Z,37.88
2022-08-17T10:11:38.074Z,37.99
2022-08-17T10:12:38.222Z,39.22
2022-08-17T10:13:38.127Z,40.04
2022-08-17T10:14:43.652Z,41.93
2022-08-17T10:15:38.174Z,42.85
2022-08-17T10:16:38.206Z,43.29
2022-08-17T10:17:38.227Z,41.81
2022-08-17T10:18:38.258Z,41.95
2022-08-17T10:19:38.281Z,42.37
2022-08-17T10:20:38.311Z,43.87
2022-08-17T10:21:38.328Z,44.49
2022-08-17T10:22:38.382Z,46.53
2022-08-17T10:23:38.383Z,44.82
2022-08-17T10:24:38.404Z,46.19
2022-08-17T10:25:54.027Z,47.15
2022-08-17T10:26:46.222Z,44.68
2022-08-17T10:27:38.477Z,47.46
2022-08-17T10:28:38.505Z,48.71
2022-08-17T10:29:49.733Z,47.00
2022-08-17T10:30:38.551Z,49.63
2022-08-17T10:31:38.578Z,49.91
2022-08-17T10:32:38.599Z,50.32
2022-08-17T10:33:38.616Z,49.27
2022-08-17T10:34:41.393Z,50.23
2022-08-17T10:35:38.662Z,50.25
2022-08-17T10:36:38.790Z,52.32
2022-08-17T10:37:38.706Z,48.85
2022-08-17T10:38:38.730Z,49.17
2022-08-17T10:39:52.408Z,47.10
2022-08-17T10:40:38.772Z,49.70
2022-08-17T10:41:40.519Z,49.29
2022-08-17T10:42:38.810Z,49.51
2022-08-17T10:43:38.829Z,49.89
2022-08-17T10:44:41.287Z,50.69
2022-08-17T10:45:38.872Z,46.95
2022-08-17T10:46:38.898Z,49.48
2022-08-17T10:47:54.988Z,51.22
2022-08-17T10:48:38.938Z,51.32
2022-08-17T10:49:38.958Z,52.76
2022-08-17T10:50:38.976Z,51.99
2022-08-17T10:51:38.994Z,51.41
2022-08-17T10:52:39.017Z,51.22
2022-08-17T10:53:39.040Z,52.19
2022-08-17T10:54:39.064Z,51.20
2022-08-17T10:55:39.083Z,48.66
2022-08-17T10:56:39.098Z,51.43
2022-08-17T10:57:39.121Z,51.62
2022-08-17T10:58:39.135Z,48.64
2022-08-17T10:59:39.153Z,51.34
2022-08-17T11:00:39.236Z,52.69
2022-08-17T11:01:39.192Z,50.40
2022-08-17T11:02:39.216Z,52.83
2022-08-17T11:03:39.233Z,54.09
2022-08-17T11:04:39.254Z,46.78
2022-08-17T11:05:43.500Z,49.80
2022-08-17T11:06:39.293Z,50.96
2022-08-17T11:07:39.308Z,52.62
2022-08-17T11:08:39.331Z,51.37
2022-08-17T11:09:39.351Z,50.01
2022-08-17T11:10:39.364Z,50.69
2022-08-17T11:11:39.377Z,50.52
2022-08-17T11:12:39.401Z,48.39
2022-08-17T11:13:39.419Z,51.01
2022-08-17T11:14:39.437Z,51.20
2022-08-17T11:15:39.448Z,49.49
2022-08-17T11:16:39.470Z,50.16
2022-08-17T11:17:39.488Z,51.32
2022-08-17T11:18:39.506Z,53.74
2022-08-17T11:19:39.521Z,53.45
2022-08-17T11:20:39.542Z,53.45
2022-08-17T11:21:39.560Z,53.17
2022-08-17T11:22:39.578Z,52.01
2022-08-17T11:23:39.594Z,51.14
2022-08-17T11:24:39.608Z,49.43
2022-08-17T11:25:39.627Z,50.15
2022-08-17T11:26:39.644Z,47.06
2022-08-17T11:27:39.673Z,46.46
2022-08-17T11:28:39.681Z,47.63
2022-08-17T11:29:39.705Z,44.79
2022-08-17T11:30:39.721Z,43.41
2022-08-17T11:31:40.019Z,43.06
2022-08-17T11:32:47.560Z,43.02
2022-08-17T11:33:39.778Z,41.76
2022-08-17T11:34:39.797Z,42.19
2022-08-17T11:35:39.815Z,42.63
2022-08-17T11:36:39.836Z,40.59
2022-08-17T11:37:39.863Z,43.36
2022-08-17T11:38:39.877Z,43.12
2022-08-17T11:39:39.955Z,41.49
2022-08-17T11:40:39.923Z,42.20
2022-08-17T11:41:39.943Z,43.57
2022-08-17T11:42:39.962Z,38.96
2022-08-17T11:43:42.815Z,43.64
2022-08-17T11:44:40.010Z,40.88
2022-08-17T11:45:40.028Z,42.33
2022-08-17T11:46:40.050Z,39.80
2022-08-17T11:47:40.076Z,42.22
2022-08-17T11:48:40.100Z,42.11
2022-08-17T11:49:40.121Z,41.80
2022-08-17T11:50:40.145Z,41.16
2022-08-17T11:51:40.166Z,41.53
2022-08-17T11:52:40.188Z,43.46
2022-08-17T11:53:40.207Z,40.55
2022-08-17T11:54:40.231Z,42.97
2022-08-17T11:55:44.757Z,44.81
2022-08-17T11:56:40.278Z,42.93
2022-08-17T11:57:40.299Z,42.97
2022-08-17T11:58:40.324Z,42.41
2022-08-17T11:59:40.344Z,45.38
2022-08-17T12:00:40.366Z,42.05
2022-08-17T12:01:40.387Z,43.70
2022-08-17T12:02:44.382Z,44.27
2022-08-17T12:03:40.430Z,43.82
2022-08-17T12:04:40.517Z,43.27
2022-08-17T12:05:40.474Z,43.29
2022-08-17T12:06:40.490Z,45.68
2022-08-17T12:07:40.518Z,46.28
2022-08-17T12:08:40.529Z,45.90
2022-08-17T12:09:40.556Z,47.56
2022-08-17T12:10:40.575Z,47.85
2022-08-17T12:11:56.247Z,46.04
2022-08-17T12:12:40.616Z,48.16
2022-08-17T12:13:40.638Z,45.08
2022-08-17T12:15:08.251Z,47.36
2022-08-17T12:15:40.674Z,47.44
2022-08-17T12:16:40.702Z,46.77
2022-08-17T12:17:42.848Z,46.81
2022-08-17T12:18:40.738Z,49.67
2022-08-17T12:19:40.756Z,47.49
2022-08-17T12:20:40.772Z,44.44
2022-08-17T12:21:40.795Z,44.94
2022-08-17T12:22:40.818Z,44.96
2022-08-17T12:23:40.840Z,45.08
2022-08-17T12:24:40.854Z,46.26
2022-08-17T12:25:40.873Z,49.53
2022-08-17T12:26:40.894Z,47.34
2022-08-17T12:27:48.938Z,45.92
2022-08-17T12:28:40.929Z,46.21
2022-08-17T12:29:40.945Z,45.84
2022-08-17T12:30:40.966Z,47.49
2022-08-17T12:31:40.996Z,49.34
2022-08-17T12:32:41.011Z,47.92
2022-08-17T12:33:41.030Z,49.37
2022-08-17T12:34:41.049Z,49.37
2022-08-17T12:35:41.071Z,47.45
2022-08-17T12:36:41.075Z,46.13
2022-08-17T12:37:41.096Z,49.70
2022-08-17T12:38:41.115Z,50.96
2022-08-17T12:39:41.191Z,46.25
2022-08-17T12:40:41.171Z,49.51
2022-08-17T12:41:41.164Z,49.70
2022-08-17T12:42:41.183Z,47.67
2022-08-17T12:43:41.203Z,47.31
2022-08-17T12:44:50.157Z,49.15
2022-08-17T12:45:41.236Z,47.31
2022-08-17T12:46:41.251Z,47.63
2022-08-17T12:47:41.272Z,47.05
2022-08-17T12:48:58.848Z,48.01
2022-08-17T12:49:41.308Z,51.20
2022-08-17T12:50:41.327Z,49.92
2022-08-17T12:51:41.338Z,50.43
2022-08-17T12:52:41.357Z,51.49